Terminal Aerodrome Forecast
Issued by NWS

Home | Current Version | Previous Version | Graphics & Text | Print | Product List | Glossary On
Versions: 1 2 3 4 5 6 7 8 9 10 11 12 13 14 15 16 17 18 19 20 21 22 23 24 25 26 27 28 29 30 31 32
000
FTUS43 KLOT 182143 AAB
TAFGYY
TAF AMD
KGYY 182143Z 1822/1918 34023G36KT P6SM SCT009 OVC012
      TEMPO 1822/1823 5SM -RA OVC010
     FM190100 33018G28KT P6SM OVC025
     FM190600 32013G20KT P6SM BKN025
     FM191400 30012KT P6SM FEW020 SCT200=

USA.gov is the U.S. government's official web portal to all federal, state and local government web resources and services.